Time;durP1;ratioP1;P1;durP2;ratioP2;P2;SDS_P1;SDS_P2;PMS_P1;PMS_P2;Temp;Humidity;BMP_temperature;BMP_pressure;BME280_temperature;BME280_humidity;BME280_pressure;Samples;Min_cycle;Max_cycle;Signal;HPM_P1;HPM_P2
2023/03/27 00:02:00;;;;;;;8.25;1.52;;;11.80;88.50;;;;;;5032744;28;20045;-71
2023/03/27 00:04:27;;;;;;;7.88;1.63;;;11.90;88.80;;;;;;5033258;28;20398;-69
2023/03/27 00:06:53;;;;;;;7.30;1.25;;;11.90;89.20;;;;;;5033095;28;20014;-68
2023/03/27 00:09:20;;;;;;;6.43;1.20;;;11.90;90.00;;;;;;5032937;28;20441;-68
2023/03/27 00:11:46;;;;;;;7.70;1.40;;;11.90;89.70;;;;;;5033090;28;20048;-68
2023/03/27 00:14:12;;;;;;;7.55;1.42;;;11.90;90.10;;;;;;5033078;28;20025;-69
2023/03/27 00:16:38;;;;;;;6.03;0.95;;;11.80;90.40;;;;;;5032768;28;20075;-68
2023/03/27 00:19:04;;;;;;;6.97;1.27;;;11.80;90.70;;;;;;5032961;28;20080;-68
2023/03/27 00:21:30;;;;;;;6.72;1.02;;;11.80;90.80;;;;;;5032813;28;20032;-68
2023/03/27 00:23:55;;;;;;;7.05;1.25;;;11.90;90.40;;;;;;5032374;28;20045;-68
2023/03/27 00:26:21;;;;;;;6.35;1.25;;;11.80;90.50;;;;;;5032817;28;20053;-68
2023/03/27 00:28:47;;;;;;;8.27;0.98;;;11.80;90.70;;;;;;5032847;28;20029;-69
2023/03/27 00:31:14;;;;;;;5.63;1.17;;;11.80;90.20;;;;;;5032596;28;20495;-69
2023/03/27 00:33:41;;;;;;;6.68;1.10;;;11.70;90.40;;;;;;5032777;28;20040;-70
2023/03/27 00:36:07;;;;;;;9.70;1.30;;;11.70;90.60;;;;;;5032589;28;20032;-69
2023/03/27 00:38:33;;;;;;;5.70;0.80;;;11.60;90.80;;;;;;5032707;28;20085;-72
2023/03/27 00:40:59;;;;;;;4.28;1.05;;;11.60;90.90;;;;;;5032598;28;20050;-72
2023/03/27 00:43:29;;;;;;;4.45;0.95;;;11.60;90.80;;;;;;5032414;28;20038;-69
2023/03/27 00:46:13;;;;;;;4.45;0.80;;;11.60;90.80;;;;;;5032302;28;20475;-69
2023/03/27 00:48:39;;;;;;;4.38;0.90;;;11.60;90.60;;;;;;5032508;28;20051;-70
2023/03/27 00:51:05;;;;;;;4.35;0.90;;;11.60;90.70;;;;;;5032422;28;20022;-69
2023/03/27 00:53:32;;;;;;;4.68;0.80;;;11.60;90.70;;;;;;5032795;28;20025;-69
2023/03/27 00:56:01;;;;;;;1.83;0.70;;;11.50;90.70;;;;;;5032243;28;20496;-70
2023/03/27 00:58:38;;;;;;;7.38;1.05;;;11.60;90.30;;;;;;5032632;28;20033;-69
2023/03/27 01:01:06;;;;;;;2.55;0.60;;;11.50;90.40;;;;;;5032241;28;20474;-70
2023/03/27 01:03:32;;;;;;;4.65;0.93;;;11.50;90.40;;;;;;5032700;28;20108;-69
2023/03/27 01:06:00;;;;;;;3.33;0.85;;;11.50;90.50;;;;;;5032432;28;20105;-71
2023/03/27 01:08:30;;;;;;;5.90;0.82;;;11.50;90.20;;;;;;5035758;28;20030;-69
2023/03/27 01:11:08;;;;;;;6.00;0.90;;;11.50;89.90;;;;;;5036390;28;20433;-70
2023/03/27 01:13:49;;;;;;;5.35;1.10;;;11.50;88.80;;;;;;5036384;28;20021;-69
2023/03/27 01:16:52;;;;;;;5.70;1.00;;;11.40;89.70;;;;;;5035970;28;20036;-73
2023/03/27 01:19:55;;;;;;;5.10;0.73;;;11.40;89.80;;;;;;5023313;28;20045;-72
2023/03/27 01:22:48;;;;;;;5.32;0.80;;;11.40;89.90;;;;;;5036340;28;20125;-70
2023/03/27 01:25:17;;;;;;;3.45;0.93;;;11.40;89.90;;;;;;5036067;28;20045;-69
2023/03/27 01:27:51;;;;;;;3.53;1.10;;;11.50;90.10;;;;;;5035892;28;20072;-70
2023/03/27 01:30:21;;;;;;;5.03;1.25;;;11.40;90.30;;;;;;5035812;28;20041;-71
2023/03/27 01:33:24;;;;;;;3.15;0.80;;;11.40;90.40;;;;;;5036027;28;20032;-72
2023/03/27 01:36:33;;;;;;;7.10;1.00;;;11.40;90.40;;;;;;5033086;28;20444;-71
2023/03/27 01:39:17;;;;;;;5.53;1.02;;;11.40;90.60;;;;;;5035502;28;20029;-69
2023/03/27 01:41:52;;;;;;;6.57;0.95;;;11.40;90.80;;;;;;5035851;28;20029;-69
2023/03/27 01:44:56;;;;;;;6.38;1.00;;;11.40;90.90;;;;;;5035360;28;20116;-70
2023/03/27 01:47:31;;;;;;;5.28;0.90;;;11.40;91.00;;;;;;5035852;28;20064;-69
2023/03/27 01:50:07;;;;;;;4.03;0.80;;;11.40;91.20;;;;;;5035507;28;20018;-70
2023/03/27 01:52:38;;;;;;;5.13;0.90;;;11.40;91.10;;;;;;5034583;28;20060;-71
2023/03/27 01:55:10;;;;;;;7.93;1.02;;;11.30;91.20;;;;;;5035276;28;20024;-69
2023/03/27 01:57:44;;;;;;;2.85;0.60;;;11.30;91.20;;;;;;5035695;28;20434;-68
2023/03/27 02:00:16;;;;;;;6.97;1.15;;;11.30;91.30;;;;;;5035376;28;20021;-69
2023/03/27 02:02:56;;;;;;;2.58;1.00;;;11.30;91.20;;;;;;5035549;28;20025;-71
2023/03/27 02:05:33;;;;;;;4.80;0.80;;;11.30;91.20;;;;;;5035283;28;20057;-73
2023/03/27 02:08:23;;;;;;;6.15;1.10;;;11.30;91.20;;;;;;5035228;28;20168;-72
2023/03/27 02:10:54;;;;;;;3.97;0.77;;;11.30;91.20;;;;;;5035027;28;20033;-70
2023/03/27 02:13:28;;;;;;;3.92;0.75;;;11.30;91.30;;;;;;5035065;28;20474;-72
2023/03/27 02:15:57;;;;;;;4.50;0.65;;;11.30;91.10;;;;;;5035339;28;20022;-70
2023/03/27 02:18:28;;;;;;;3.90;0.70;;;11.30;91.10;;;;;;5034303;28;20378;-69
2023/03/27 02:20:54;;;;;;;3.75;0.77;;;11.30;91.30;;;;;;5035512;28;20026;-73
2023/03/27 02:23:21;;;;;;;2.92;0.77;;;11.30;91.40;;;;;;5034808;28;20487;-69
2023/03/27 02:25:48;;;;;;;4.97;1.02;;;11.30;91.30;;;;;;5034931;28;20492;-73
2023/03/27 02:28:35;;;;;;;2.67;0.73;;;11.20;91.30;;;;;;5034705;28;20022;-71
2023/03/27 02:31:38;;;;;;;5.93;1.02;;;11.30;91.40;;;;;;5034728;28;20386;-70
2023/03/27 02:34:19;;;;;;;5.30;1.08;;;11.30;91.20;;;;;;5034601;28;20025;-72
2023/03/27 02:37:10;;;;;;;4.78;1.17;;;11.30;91.20;;;;;;5034886;28;20057;-70
2023/03/27 02:39:51;;;;;;;4.03;0.70;;;11.30;91.30;;;;;;5034721;28;20409;-70
2023/03/27 02:42:24;;;;;;;7.65;1.00;;;11.30;91.10;;;;;;5034279;28;20037;-69
2023/03/27 02:44:52;;;;;;;3.90;0.63;;;11.30;91.10;;;;;;5034714;28;20125;-72
2023/03/27 02:47:22;;;;;;;2.97;0.68;;;11.20;91.00;;;;;;5034579;28;20067;-72
2023/03/27 02:49:52;;;;;;;4.47;0.90;;;11.20;91.10;;;;;;5034467;28;20036;-70
2023/03/27 02:52:25;;;;;;;6.35;1.00;;;11.20;91.00;;;;;;5044130;28;20024;-70
2023/03/27 02:55:05;;;;;;;4.38;1.08;;;11.20;91.10;;;;;;5053746;28;20109;-71
2023/03/27 02:57:37;;;;;;;5.57;0.55;;;11.20;91.30;;;;;;5052577;28;20031;-72
2023/03/27 03:00:11;;;;;;;;;;;11.20;90.90;;;;;;5054318;28;20441;-73
2023/03/27 03:02:39;;;;;;;5.88;1.02;;;11.20;90.90;;;;;;5054502;28;19912;-69
2023/03/27 03:05:13;;;;;;;5.70;1.05;;;11.10;91.20;;;;;;5054119;28;20029;-69
2023/03/27 03:07:39;;;;;;;6.65;0.95;;;11.10;91.00;;;;;;5054194;28;20018;-71
2023/03/27 03:10:07;;;;;;;3.05;1.05;;;11.10;91.00;;;;;;5053961;28;20032;-73
2023/03/27 03:12:33;;;;;;;5.55;1.08;;;11.10;91.00;;;;;;5053832;28;20143;-69
2023/03/27 03:14:58;;;;;;;7.95;0.90;;;11.10;90.90;;;;;;5053832;28;20489;-69
2023/03/27 03:17:24;;;;;;;4.75;1.17;;;11.10;91.10;;;;;;5054102;28;20377;-72
2023/03/27 03:19:50;;;;;;;8.10;1.08;;;11.10;91.10;;;;;;5054173;28;20021;-72
2023/03/27 03:22:15;;;;;;;8.30;1.35;;;11.10;90.90;;;;;;5053785;28;20021;-72
2023/03/27 03:24:42;;;;;;;4.13;0.75;;;11.20;90.60;;;;;;5053571;28;20478;-70
2023/03/27 03:27:08;;;;;;;6.20;1.10;;;11.10;90.50;;;;;;5053763;28;20029;-72
2023/03/27 03:29:36;;;;;;;3.80;0.90;;;11.10;90.60;;;;;;5053547;28;20062;-69
2023/03/27 03:32:05;;;;;;;3.85;0.90;;;11.10;90.50;;;;;;5053747;28;20021;-70
2023/03/27 03:34:32;;;;;;;3.28;0.75;;;11.20;90.80;;;;;;5053587;28;20028;-72
2023/03/27 03:36:58;;;;;;;3.50;0.70;;;11.20;91.10;;;;;;5053550;28;20029;-70
2023/03/27 03:39:24;;;;;;;3.80;0.80;;;11.20;91.00;;;;;;5053257;28;20032;-70
2023/03/27 03:41:50;;;;;;;2.97;0.50;;;11.20;90.90;;;;;;5052029;28;20028;-72
2023/03/27 03:44:16;;;;;;;5.15;0.60;;;11.30;90.90;;;;;;5053405;28;20543;-72
2023/03/27 03:46:41;;;;;;;2.15;0.38;;;11.20;90.80;;;;;;5053412;28;20103;-73
2023/03/27 03:49:07;;;;;;;2.80;0.40;;;11.20;90.50;;;;;;5053278;28;20405;-70
2023/03/27 03:51:34;;;;;;;4.05;0.40;;;11.10;90.70;;;;;;5053065;28;20086;-72
2023/03/27 03:54:04;;;;;;;1.13;0.30;;;11.10;90.80;;;;;;5052958;28;20505;-71
2023/03/27 03:56:30;;;;;;;2.38;0.40;;;11.00;90.60;;;;;;5053012;28;20504;-70
2023/03/27 03:58:56;;;;;;;1.80;0.30;;;10.90;90.60;;;;;;5053282;28;20082;-71
2023/03/27 04:01:22;;;;;;;2.40;0.52;;;10.90;90.80;;;;;;5052957;28;20032;-69
2023/03/27 04:03:49;;;;;;;4.28;0.40;;;10.80;91.00;;;;;;5053031;28;20056;-69
2023/03/27 04:06:16;;;;;;;2.83;0.38;;;10.80;91.10;;;;;;5052962;28;20100;-72
2023/03/27 04:08:43;;;;;;;2.25;0.40;;;10.80;91.00;;;;;;5052745;28;20542;-73
2023/03/27 04:11:09;;;;;;;2.25;0.40;;;10.80;91.20;;;;;;5051411;28;20027;-70
2023/03/27 04:13:35;;;;;;;2.22;0.57;;;10.80;91.00;;;;;;5052875;28;20048;-69
2023/03/27 04:16:00;;;;;;;1.95;0.50;;;10.80;91.10;;;;;;5052703;28;20025;-69
2023/03/27 04:18:31;;;;;;;2.72;0.43;;;10.70;90.90;;;;;;5052729;28;20021;-69
2023/03/27 04:21:01;;;;;;;2.70;0.45;;;10.70;91.30;;;;;;5052873;28;20031;-72
2023/03/27 04:23:29;;;;;;;2.80;0.50;;;10.70;91.40;;;;;;5052172;28;20087;-69
2023/03/27 04:26:04;;;;;;;4.88;0.60;;;10.60;91.40;;;;;;5052759;28;20054;-69
2023/03/27 04:28:33;;;;;;;1.50;0.50;;;10.60;91.50;;;;;;5052299;28;20029;-69
2023/03/27 04:31:05;;;;;;;5.32;1.23;;;10.60;91.80;;;;;;5052857;28;20021;-71
2023/03/27 04:33:33;;;;;;;4.40;0.90;;;10.60;91.80;;;;;;5052519;28;20114;-69
2023/03/27 04:35:59;;;;;;;3.13;0.77;;;10.60;91.90;;;;;;5051480;28;20025;-69
2023/03/27 04:38:26;;;;;;;2.58;0.60;;;10.60;91.70;;;;;;5052365;28;20497;-70
2023/03/27 04:40:52;;;;;;;2.30;0.50;;;10.60;91.80;;;;;;5052296;28;20464;-69
2023/03/27 04:43:18;;;;;;;3.30;0.65;;;10.60;91.90;;;;;;5051885;28;20119;-70
2023/03/27 04:45:46;;;;;;;3.75;0.80;;;10.70;91.80;;;;;;5052702;28;20060;-69
2023/03/27 04:48:12;;;;;;;3.72;0.30;;;10.80;91.90;;;;;;5052396;28;20071;-69
2023/03/27 04:50:39;;;;;;;2.78;0.40;;;10.80;91.40;;;;;;5052385;28;20103;-70
2023/03/27 04:53:05;;;;;;;3.10;0.47;;;10.60;91.20;;;;;;5052065;28;20025;-71
2023/03/27 04:55:36;;;;;;;2.22;0.40;;;10.60;91.40;;;;;;5052454;28;20466;-71
2023/03/27 04:58:04;;;;;;;1.30;0.40;;;10.50;91.00;;;;;;5052365;28;20017;-70
2023/03/27 05:00:30;;;;;;;1.40;0.30;;;10.40;91.30;;;;;;5050169;28;20029;-72
2023/03/27 05:02:56;;;;;;;1.77;0.40;;;10.40;91.10;;;;;;5033316;28;20038;-69
2023/03/27 05:05:22;;;;;;;1.33;0.20;;;10.40;91.50;;;;;;5031429;28;20032;-69
2023/03/27 05:07:48;;;;;;;1.38;0.30;;;10.40;91.10;;;;;;5030720;28;20030;-72
2023/03/27 05:10:16;;;;;;;2.75;0.50;;;10.40;91.00;;;;;;5032075;28;20024;-72
2023/03/27 05:12:46;;;;;;;3.65;0.50;;;10.30;91.00;;;;;;5032243;28;20025;-72
2023/03/27 05:15:13;;;;;;;3.70;0.52;;;10.30;91.20;;;;;;5041780;28;20103;-70
2023/03/27 05:17:40;;;;;;;2.00;0.38;;;10.20;91.30;;;;;;5046493;28;20170;-69
2023/03/27 05:20:13;;;;;;;1.45;0.40;;;10.20;91.70;;;;;;5037848;28;20056;-70
2023/03/27 05:22:39;;;;;;;2.35;0.35;;;10.20;91.70;;;;;;5039575;28;20107;-72
2023/03/27 05:25:05;;;;;;;2.85;0.50;;;10.40;91.20;;;;;;5040214;28;20037;-70
2023/03/27 05:27:31;;;;;;;3.15;0.80;;;10.40;91.30;;;;;;5048136;28;20029;-70
2023/03/27 05:29:57;;;;;;;1.88;0.63;;;10.40;91.20;;;;;;5043630;28;20037;-71
2023/03/27 05:32:23;;;;;;;2.83;0.90;;;10.40;91.30;;;;;;5040784;28;20395;-70
2023/03/27 05:34:53;;;;;;;2.70;0.80;;;10.40;91.30;;;;;;5043617;28;20041;-69
2023/03/27 05:37:20;;;;;;;6.05;0.77;;;10.30;91.50;;;;;;5031463;28;20832;-68
2023/03/27 05:39:45;;;;;;;6.10;1.20;;;10.40;91.50;;;;;;5040461;28;20470;-68
2023/03/27 05:42:15;;;;;;;3.60;0.80;;;10.40;91.30;;;;;;5044246;28;20029;-69
2023/03/27 05:44:44;;;;;;;2.63;0.85;;;10.30;91.70;;;;;;5044049;28;20371;-69
2023/03/27 05:47:11;;;;;;;5.70;1.00;;;10.30;91.50;;;;;;5058138;28;20055;-68
2023/03/27 05:49:37;;;;;;;4.15;1.20;;;10.30;91.70;;;;;;5050449;28;20031;-68
2023/03/27 05:52:03;;;;;;;3.90;1.20;;;10.30;91.90;;;;;;5052206;28;20022;-68
2023/03/27 05:54:29;;;;;;;3.30;1.20;;;10.30;91.90;;;;;;5056155;28;20048;-68
2023/03/27 05:56:55;;;;;;;4.40;1.17;;;10.30;92.20;;;;;;5053425;28;20378;-68
2023/03/27 05:59:20;;;;;;;5.40;1.40;;;10.20;92.10;;;;;;5045973;28;20104;-69
2023/03/27 06:01:47;;;;;;;3.72;1.10;;;10.20;92.10;;;;;;5046507;28;20110;-72
2023/03/27 06:04:14;;;;;;;2.53;1.13;;;10.00;92.70;;;;;;5038541;28;20045;-70
2023/03/27 06:06:40;;;;;;;3.58;1.35;;;10.10;92.20;;;;;;5050053;28;20021;-69
2023/03/27 06:09:06;;;;;;;4.93;1.38;;;10.00;92.60;;;;;;5048723;28;20033;-70
2023/03/27 06:11:32;;;;;;;5.60;1.52;;;10.00;92.70;;;;;;5049917;28;20044;-69
2023/03/27 06:13:58;;;;;;;7.25;1.65;;;10.00;92.90;;;;;;5065495;28;20094;-70
2023/03/27 06:16:24;;;;;;;7.55;1.80;;;10.00;92.60;;;;;;5051445;28;20039;-73
2023/03/27 06:18:50;;;;;;;7.03;2.80;;;10.10;92.80;;;;;;5054436;28;20053;-69
2023/03/27 06:21:16;;;;;;;5.72;2.65;;;10.20;92.70;;;;;;5053513;28;20453;-70
2023/03/27 06:23:41;;;;;;;7.50;3.25;;;10.10;92.70;;;;;;5054652;28;20037;-70
2023/03/27 06:26:07;;;;;;;6.13;4.07;;;10.20;92.60;;;;;;5054377;28;20451;-70
2023/03/27 06:28:32;;;;;;;7.25;4.10;;;10.20;92.80;;;;;;5053786;28;20115;-71
2023/03/27 06:30:58;;;;;;;6.10;3.80;;;10.20;93.10;;;;;;5054690;28;20527;-70
2023/03/27 06:33:26;;;;;;;7.50;2.42;;;10.20;93.60;;;;;;5054437;28;20064;-70
2023/03/27 06:35:53;;;;;;;4.20;2.20;;;10.30;93.60;;;;;;5054998;28;20446;-73
2023/03/27 06:38:19;;;;;;;4.00;1.88;;;10.30;93.60;;;;;;5054778;28;20454;-71
2023/03/27 06:40:46;;;;;;;4.90;1.80;;;10.40;93.30;;;;;;5054677;28;20049;-72
2023/03/27 06:43:12;;;;;;;3.13;1.75;;;10.40;93.00;;;;;;5054037;28;20469;-69
2023/03/27 06:45:44;;;;;;;5.03;1.65;;;10.50;92.80;;;;;;5052591;28;20025;-70
2023/03/27 06:48:10;;;;;;;4.95;2.05;;;10.50;92.90;;;;;;5054365;28;20028;-70
2023/03/27 06:50:37;;;;;;;3.85;1.30;;;10.40;93.20;;;;;;5054275;28;20029;-72
2023/03/27 06:53:03;;;;;;;7.50;1.30;;;10.50;92.80;;;;;;5054821;28;20033;-70
2023/03/27 06:55:31;;;;;;;3.30;1.33;;;10.40;93.00;;;;;;5052839;28;20413;-70
2023/03/27 06:57:59;;;;;;;7.43;1.60;;;10.40;92.90;;;;;;5054230;28;20386;-69
2023/03/27 07:00:28;;;;;;;5.85;2.20;;;10.50;92.60;;;;;;5054353;28;20025;-71
2023/03/27 07:02:59;;;;;;;6.22;1.52;;;10.50;92.40;;;;;;5053962;28;20033;-71
2023/03/27 07:05:27;;;;;;;6.78;2.05;;;10.40;92.00;;;;;;5053809;28;20036;-70
2023/03/27 07:07:53;;;;;;;6.63;1.40;;;10.50;91.90;;;;;;5053960;28;20107;-73
2023/03/27 07:10:19;;;;;;;8.85;1.27;;;10.50;92.00;;;;;;5053772;28;20541;-72
2023/03/27 07:12:50;;;;;;;4.45;1.35;;;10.50;92.30;;;;;;5054147;28;20102;-71
2023/03/27 07:15:17;;;;;;;5.63;1.50;;;10.50;92.40;;;;;;5054009;28;20048;-70
2023/03/27 07:17:43;;;;;;;6.75;1.63;;;10.50;92.40;;;;;;5053733;28;20025;-71
2023/03/27 07:20:12;;;;;;;6.35;1.35;;;10.60;92.40;;;;;;5053757;28;20386;-70
2023/03/27 07:22:41;;;;;;;6.07;1.40;;;10.60;92.30;;;;;;5053368;28;20067;-70
2023/03/27 07:25:09;;;;;;;6.65;1.27;;;10.70;92.30;;;;;;5053551;28;20469;-70
2023/03/27 07:27:36;;;;;;;6.15;1.38;;;10.80;92.50;;;;;;5051400;28;20501;-73
2023/03/27 07:30:02;;;;;;;6.88;1.48;;;10.80;92.80;;;;;;5055410;28;20024;-72
2023/03/27 07:32:31;;;;;;;6.47;1.67;;;10.80;92.50;;;;;;5073148;28;20028;-70
2023/03/27 07:34:57;;;;;;;8.55;1.92;;;10.90;92.50;;;;;;5034060;28;20032;-70
2023/03/27 07:37:23;;;;;;;7.28;1.42;;;10.90;92.20;;;;;;5046858;28;20033;-71
2023/03/27 07:39:49;;;;;;;5.68;1.85;;;11.00;92.20;;;;;;5053309;28;20449;-71
2023/03/27 07:42:14;;;;;;;8.88;1.77;;;11.00;91.80;;;;;;5053173;28;20018;-70
2023/03/27 07:44:40;;;;;;;6.57;1.27;;;11.10;91.70;;;;;;5052864;28;20462;-70
2023/03/27 07:47:06;;;;;;;5.25;1.15;;;11.10;91.80;;;;;;5045484;28;20096;-70
2023/03/27 07:49:31;;;;;;;7.53;1.75;;;11.20;91.90;;;;;;5052777;28;20060;-70
2023/03/27 07:51:59;;;;;;;8.27;1.40;;;11.20;92.00;;;;;;5052567;28;20083;-70
2023/03/27 07:54:25;;;;;;;6.75;1.55;;;11.30;91.70;;;;;;5053370;28;20025;-70
2023/03/27 07:56:52;;;;;;;7.15;1.02;;;11.40;91.30;;;;;;5053126;28;20079;-70
2023/03/27 07:59:19;;;;;;;5.35;1.23;;;11.50;90.60;;;;;;5052307;28;20028;-70
2023/03/27 08:01:47;;;;;;;3.78;0.85;;;11.50;89.70;;;;;;5052832;28;20072;-70
2023/03/27 08:04:14;;;;;;;5.45;1.15;;;11.50;89.00;;;;;;5039068;28;20033;-70
2023/03/27 08:06:39;;;;;;;3.90;1.13;;;11.40;88.40;;;;;;5031689;28;20535;-70
2023/03/27 08:09:05;;;;;;;4.93;1.10;;;11.40;88.00;;;;;;5032962;28;20112;-70
2023/03/27 08:11:31;;;;;;;4.13;1.23;;;11.30;88.30;;;;;;5038117;28;20013;-70
2023/03/27 08:13:57;;;;;;;5.30;0.90;;;11.30;88.30;;;;;;5052705;28;20028;-70
2023/03/27 08:16:26;;;;;;;5.03;1.30;;;11.30;87.80;;;;;;5051964;28;20025;-71
2023/03/27 08:18:52;;;;;;;8.02;1.20;;;11.30;88.20;;;;;;5052445;28;20104;-72
2023/03/27 08:21:18;;;;;;;4.95;1.48;;;11.30;87.80;;;;;;5047594;28;20526;-70
2023/03/27 08:23:44;;;;;;;4.88;1.13;;;11.40;87.60;;;;;;5052542;28;20032;-72
2023/03/27 08:26:10;;;;;;;8.05;1.27;;;11.40;87.80;;;;;;5049562;28;20060;-70
2023/03/27 08:28:36;;;;;;;8.15;1.80;;;11.40;86.60;;;;;;5045957;28;20064;-72
2023/03/27 08:31:10;;;;;;;7.95;1.60;;;11.40;86.50;;;;;;5036876;28;20021;-70
2023/03/27 08:33:35;;;;;;;5.82;1.23;;;11.40;86.90;;;;;;5046793;28;20135;-73
2023/03/27 08:36:01;;;;;;;5.15;1.35;;;11.40;87.10;;;;;;5051498;28;20513;-70
2023/03/27 08:38:31;;;;;;;8.45;1.50;;;11.50;87.60;;;;;;5047743;28;20112;-71
2023/03/27 08:40:58;;;;;;;5.78;1.00;;;11.50;87.60;;;;;;5041466;28;20025;-70
2023/03/27 08:43:34;;;;;;;6.18;1.20;;;11.50;88.60;;;;;;5043292;28;20025;-72
2023/03/27 08:46:08;;;;;;;6.13;1.20;;;11.50;89.40;;;;;;5051593;28;20029;-70
2023/03/27 08:48:36;;;;;;;4.80;1.13;;;11.60;89.50;;;;;;5032515;28;20034;-73
2023/03/27 08:51:18;;;;;;;6.53;1.30;;;11.50;89.20;;;;;;5032456;28;20419;-70
2023/03/27 08:53:55;;;;;;;7.90;1.35;;;11.60;89.80;;;;;;5044432;28;20039;-71
2023/03/27 08:56:23;;;;;;;5.45;1.75;;;11.60;89.20;;;;;;5048881;28;20054;-70
2023/03/27 08:58:48;;;;;;;7.13;1.02;;;11.70;88.90;;;;;;5046215;28;20032;-71
2023/03/27 09:01:34;;;;;;;4.53;1.30;;;11.60;89.00;;;;;;5039246;28;20025;-71
2023/03/27 09:04:35;;;;;;;6.82;1.38;;;11.70;90.00;;;;;;5040978;28;20047;-71
2023/03/27 09:07:10;;;;;;;6.53;1.30;;;11.70;89.80;;;;;;5048444;28;20082;-70
2023/03/27 09:10:12;;;;;;;5.10;1.25;;;11.80;89.40;;;;;;5032245;28;20393;-70
2023/03/27 09:13:03;;;;;;;9.60;1.38;;;11.80;90.00;;;;;;5034855;28;20025;-72
2023/03/27 09:15:33;;;;;;;6.05;1.20;;;11.80;88.60;;;;;;5032224;28;20489;-70
2023/03/27 09:18:28;;;;;;;8.15;1.02;;;11.80;88.70;;;;;;5045205;28;20155;-70
2023/03/27 09:21:00;;;;;;;4.72;1.13;;;11.90;88.00;;;;;;5052157;28;20394;-70
2023/03/27 09:23:39;;;;;;;6.75;1.23;;;11.90;88.00;;;;;;5038050;28;20044;-70
2023/03/27 09:26:29;;;;;;;7.82;1.38;;;11.90;90.40;;;;;;5051371;28;20095;-72
2023/03/27 09:28:59;;;;;;;7.65;1.50;;;12.00;86.50;;;;;;5049256;28;20064;-72
2023/03/27 09:31:29;;;;;;;5.13;1.35;;;12.00;84.40;;;;;;5038424;28;20534;-72
2023/03/27 09:33:58;;;;;;;4.22;1.30;;;12.00;84.10;;;;;;5070686;28;20030;-69
2023/03/27 09:36:23;;;;;;;6.82;1.00;;;12.00;81.90;;;;;;5055715;28;20025;-71
2023/03/27 09:38:57;;;;;;;9.30;1.23;;;12.00;81.90;;;;;;5055811;28;20029;-70
2023/03/27 09:41:27;;;;;;;6.63;0.93;;;12.00;84.40;;;;;;5054146;28;20025;-72
2023/03/27 09:44:09;;;;;;;4.10;0.68;;;12.00;80.60;;;;;;5054461;28;20041;-69
2023/03/27 09:46:38;;;;;;;6.20;0.90;;;12.00;77.10;;;;;;5045635;28;20493;-69
2023/03/27 09:49:15;;;;;;;7.50;0.88;;;11.90;80.30;;;;;;5054968;28;20051;-69
2023/03/27 09:51:45;;;;;;;8.13;0.98;;;11.90;78.40;;;;;;5055555;28;20078;-69
2023/03/27 09:54:13;;;;;;;7.35;0.98;;;12.00;81.60;;;;;;5055411;28;20107;-70
2023/03/27 09:56:57;;;;;;;4.47;0.80;;;11.90;84.20;;;;;;5040005;28;20036;-69
2023/03/27 09:59:25;;;;;;;7.68;1.15;;;11.90;83.30;;;;;;5035450;28;20025;-69
2023/03/27 10:01:58;;;;;;;6.88;0.85;;;12.00;83.40;;;;;;5040741;28;20548;-69
2023/03/27 10:04:27;;;;;;;8.07;1.10;;;11.90;83.00;;;;;;5054706;28;20136;-69
2023/03/27 10:07:00;;;;;;;5.70;0.80;;;11.90;83.30;;;;;;5055465;28;20154;-70
2023/03/27 10:09:26;;;;;;;5.70;1.13;;;11.90;84.30;;;;;;5052138;28;20113;-70
2023/03/27 10:12:03;;;;;;;5.15;0.90;;;11.90;84.60;;;;;;5053087;28;20155;-68
2023/03/27 10:14:33;;;;;;;4.88;1.23;;;12.00;83.50;;;;;;5049468;28;20040;-72
2023/03/27 10:17:00;;;;;;;6.10;1.45;;;12.00;83.90;;;;;;5035234;28;20108;-72
2023/03/27 10:19:31;;;;;;;8.88;1.63;;;12.00;85.20;;;;;;5044407;28;20470;-71
2023/03/27 10:22:03;;;;;;;8.60;1.40;;;12.00;86.00;;;;;;5045702;28;20051;-72
2023/03/27 10:24:34;;;;;;;8.90;1.23;;;12.00;85.50;;;;;;5042341;28;20045;-71
2023/03/27 10:27:04;;;;;;;7.28;1.75;;;12.10;86.70;;;;;;5053649;28;20036;-71
2023/03/27 10:29:33;;;;;;;3.72;1.08;;;12.10;86.70;;;;;;5050194;28;20109;-71
2023/03/27 10:32:00;;;;;;;4.53;0.70;;;12.10;80.80;;;;;;5049761;28;20370;-71
2023/03/27 10:34:29;;;;;;;7.05;0.80;;;12.10;82.80;;;;;;5034470;28;20029;-70
2023/03/27 10:36:54;;;;;;;5.93;1.17;;;12.10;80.40;;;;;;5035717;28;20025;-71
2023/03/27 10:39:31;;;;;;;6.10;0.93;;;12.10;80.10;;;;;;5035103;28;20445;-70
2023/03/27 10:42:00;;;;;;;4.95;0.88;;;12.10;81.90;;;;;;5054065;28;20021;-70
2023/03/27 10:44:27;;;;;;;5.43;0.82;;;12.10;83.20;;;;;;5053913;28;20052;-70
2023/03/27 10:46:53;;;;;;;8.75;1.15;;;12.10;82.60;;;;;;5054329;28;20020;-71
2023/03/27 10:50:02;;;;;;;5.63;1.50;;;12.10;82.60;;;;;;5054638;28;20108;-71
2023/03/27 10:52:49;;;;;;;2.80;0.60;;;12.10;81.40;;;;;;5054658;28;20461;-72
2023/03/27 10:55:36;;;;;;;3.35;0.65;;;12.00;85.60;;;;;;5050275;28;20505;-71
2023/03/27 10:58:16;;;;;;;7.10;0.90;;;12.10;88.00;;;;;;5054179;28;20489;-70
2023/03/27 11:00:52;;;;;;;2.70;0.50;;;12.10;85.70;;;;;;5053267;28;20443;-70
2023/03/27 11:03:33;;;;;;;3.50;0.47;;;12.10;84.60;;;;;;5053444;28;20112;-71
2023/03/27 11:06:01;;;;;;;3.67;0.50;;;12.10;90.60;;;;;;5054110;28;20462;-74
2023/03/27 11:08:30;;;;;;;3.22;0.57;;;12.20;90.20;;;;;;5035145;28;20064;-70
2023/03/27 11:11:07;;;;;;;1.33;0.17;;;12.10;91.00;;;;;;5033841;28;20021;-70
2023/03/27 11:13:38;;;;;;;3.28;0.50;;;12.20;86.80;;;;;;5034058;28;20105;-70
2023/03/27 11:16:28;;;;;;;3.20;0.50;;;12.30;83.50;;;;;;5037557;28;20033;-71
2023/03/27 11:19:12;;;;;;;1.23;0.30;;;12.20;82.10;;;;;;5046218;28;20035;-71
2023/03/27 11:21:46;;;;;;;2.17;0.60;;;12.20;84.00;;;;;;5047526;28;20482;-70
2023/03/27 11:24:21;;;;;;;5.68;0.98;;;12.30;85.00;;;;;;5047522;28;20564;-73
2023/03/27 11:27:19;;;;;;;2.60;0.85;;;12.30;82.20;;;;;;5043388;28;20090;-72
2023/03/27 11:30:04;;;;;;;4.80;1.10;;;12.30;89.20;;;;;;5047897;28;20075;-73
2023/03/27 11:33:08;;;;;;;4.60;1.05;;;12.30;79.20;;;;;;5053209;28;20040;-71
2023/03/27 11:35:40;;;;;;;4.65;0.70;;;12.30;82.60;;;;;;5047245;28;20481;-72
2023/03/27 11:38:24;;;;;;;2.90;0.70;;;12.30;93.10;;;;;;5048442;28;20029;-75
2023/03/27 11:40:50;;;;;;;4.93;0.50;;;12.40;85.80;;;;;;5050916;28;20394;-72
2023/03/27 11:43:18;;;;;;;6.32;0.98;;;12.40;80.10;;;;;;5052314;28;20048;-74
2023/03/27 11:46:11;;;;;;;5.50;0.95;;;12.30;88.50;;;;;;5046202;28;20047;-71
2023/03/27 11:49:03;;;;;;;3.60;0.85;;;12.40;84.30;;;;;;5050994;28;20119;-72
2023/03/27 11:51:47;;;;;;;2.88;0.90;;;12.40;87.90;;;;;;5048600;28;20489;-71
2023/03/27 11:54:34;;;;;;;7.63;1.20;;;12.50;89.30;;;;;;5051706;28;20083;-72
2023/03/27 11:57:04;;;;;;;8.00;1.08;;;12.50;84.40;;;;;;5051364;28;20032;-74
2023/03/27 12:00:03;;;;;;;3.40;0.68;;;12.60;90.80;;;;;;5051808;28;20025;-72
2023/03/27 12:02:55;;;;;;;3.97;0.70;;;12.60;79.70;;;;;;5016265;28;20043;-72
2023/03/27 12:05:39;;;;;;;3.25;0.77;;;12.60;83.70;;;;;;5044383;28;20032;-71
2023/03/27 12:08:11;;;;;;;7.18;1.50;;;12.60;90.60;;;;;;5048927;28;20020;-72
2023/03/27 12:10:41;;;;;;;4.05;0.65;;;12.70;85.20;;;;;;5051292;28;20103;-72
2023/03/27 12:13:47;;;;;;;6.40;1.20;;;12.70;90.30;;;;;;5052798;28;20032;-73
2023/03/27 12:16:37;;;;;;;4.68;0.80;;;12.70;80.90;;;;;;5049065;28;20017;-70
2023/03/27 12:19:26;;;;;;;7.45;1.17;;;12.70;80.10;;;;;;5034578;28;20091;-70
2023/03/27 12:22:11;;;;;;;5.70;1.00;;;12.60;91.20;;;;;;5047456;28;20017;-70
2023/03/27 12:24:48;;;;;;;3.88;1.00;;;12.30;85.10;;;;;;5051431;28;20079;-70
2023/03/27 12:27:22;;;;;;;4.93;0.85;;;12.00;83.10;;;;;;5052463;28;20029;-72
2023/03/27 12:30:00;;;;;;;6.47;1.00;;;11.80;82.40;;;;;;5052569;28;20036;-71
2023/03/27 12:32:52;;;;;;;7.32;1.08;;;12.00;81.10;;;;;;5052618;28;20474;-73
2023/03/27 12:35:21;;;;;;;5.57;1.10;;;12.10;80.50;;;;;;5050583;28;20557;-70
2023/03/27 12:37:55;;;;;;;9.07;1.27;;;11.60;78.80;;;;;;5051922;28;20032;-71
2023/03/27 12:40:37;;;;;;;4.70;1.13;;;10.90;81.50;;;;;;5052659;28;20028;-73
2023/03/27 12:43:20;;;;;;;7.63;1.23;;;11.10;87.50;;;;;;5052445;28;20052;-68
2023/03/27 12:46:06;;;;;;;6.03;1.30;;;10.80;83.90;;;;;;5051182;28;20028;-69
2023/03/27 12:48:44;;;;;;;7.40;1.38;;;11.10;78.60;;;;;;5035258;28;20067;-72
2023/03/27 12:51:14;;;;;;;4.68;1.10;;;11.30;80.90;;;;;;5037125;28;20104;-70
2023/03/27 12:53:40;;;;;;;8.55;1.45;;;10.60;80.50;;;;;;5043049;28;20089;-70
2023/03/27 12:56:23;;;;;;;8.18;1.27;;;10.60;81.90;;;;;;5031147;28;20041;-70
2023/03/27 12:58:51;;;;;;;4.13;0.80;;;10.60;87.20;;;;;;5048236;28;20043;-69
2023/03/27 13:01:38;;;;;;;7.47;1.20;;;10.50;81.30;;;;;;5042311;28;20022;-70
2023/03/27 13:04:30;;;;;;;7.20;1.30;;;10.90;83.70;;;;;;5034107;28;20446;-71
2023/03/27 13:07:37;;;;;;;7.60;1.13;;;10.90;82.50;;;;;;5035967;28;20035;-71
2023/03/27 13:10:34;;;;;;;6.63;1.00;;;11.10;82.30;;;;;;5039461;28;20470;-69
2023/03/27 13:13:35;;;;;;;6.13;1.50;;;10.90;85.10;;;;;;5055617;28;20036;-69
2023/03/27 13:16:36;;;;;;;6.47;1.13;;;11.00;81.70;;;;;;5036312;28;20025;-69